Home > Products > Valid Products > TAF

000
FTUS41 KBGM 050707 AAC
TAFBGM
TAF AMD
KBGM 050707Z 0507/0606 14004KT P6SM SCT050
      TEMPO 0507/0509 3SM BR BKN025
     FM050900 14004KT 3SM BR OVC006
     FM051400 16005KT P6SM BKN025
     FM051600 18005KT P6SM SCT040=



000
FTUS41 KBGM 050707 AAC
TAFBGM
TAF AMD
KBGM 050707Z 0507/0606 14004KT P6SM SCT050
      TEMPO 0507/0509 3SM BR BKN025
     FM050900 14004KT 3SM BR OVC006
     FM051400 16005KT P6SM BKN025
     FM051600 18005KT P6SM SCT040=



000
FTUS41 KBGM 050705 AAB
TAFELM
TAF AMD
KELM 050705Z 0507/0606 VRB03KT P6SM BKN025
      TEMPO 0507/0509 OVC010
     FM050900 VRB03KT 1 1/2SM BR OVC008
     FM051400 14005KT P6SM BKN025
     FM051600 19006KT P6SM BKN045
     FM060100 VRB03KT P6SM SCT040=



000
FTUS41 KBGM 050705 AAB
TAFITH
TAF AMD
KITH 050705Z 0507/0606 14005KT P6SM BKN035
      TEMPO 0507/0510 BKN020
     FM051000 15005KT P6SM OVC012
     FM051300 16006KT P6SM BKN025
     FM051600 18007KT P6SM SCT040
     FM060100 13004KT P6SM SKC=



000
FTUS41 KBGM 050705 AAB
TAFITH
TAF AMD
KITH 050705Z 0507/0606 14005KT P6SM BKN035
      TEMPO 0507/0510 BKN020
     FM051000 15005KT P6SM OVC012
     FM051300 16006KT P6SM BKN025
     FM051600 18007KT P6SM SCT040
     FM060100 13004KT P6SM SKC=



000
FTUS41 KBGM 050705 AAB
TAFELM
TAF AMD
KELM 050705Z 0507/0606 VRB03KT P6SM BKN025
      TEMPO 0507/0509 OVC010
     FM050900 VRB03KT 1 1/2SM BR OVC008
     FM051400 14005KT P6SM BKN025
     FM051600 19006KT P6SM BKN045
     FM060100 VRB03KT P6SM SCT040=



000
FTUS41 KBGM 050655 AAA
TAFAVP
TAF AMD
KAVP 050655Z 0507/0606 10003KT P6SM SCT080
      TEMPO 0507/0509 BKN015
     FM050900 VRB03KT 4SM BR OVC015
     FM051400 25006KT P6SM BKN045
     FM060100 VRB03KT P6SM SCT045=



000
FTUS41 KBGM 050602 AAA
TAFITH
TAF AMD
KITH 050602Z 0506/0606 14005KT P6SM BKN035
      TEMPO 0506/0510 BKN020
     FM051000 15005KT 2SM BR OVC012
     FM051300 16006KT P6SM BKN025
     FM051600 18007KT P6SM SCT040
     FM060100 13004KT P6SM SKC=



000
FTUS41 KBGM 050602 AAA
TAFITH
TAF AMD
KITH 050602Z 0506/0606 14005KT P6SM BKN035
      TEMPO 0506/0510 BKN020
     FM051000 15005KT 2SM BR OVC012
     FM051300 16006KT P6SM BKN025
     FM051600 18007KT P6SM SCT040
     FM060100 13004KT P6SM SKC=



000
FTUS41 KBGM 050601 AAA
TAFELM
TAF AMD
KELM 050601Z 0506/0606 VRB03KT P6SM BKN028
      TEMPO 0506/0509 2SM BR OVC009
     FM050900 VRB03KT 1 1/2SM BR OVC008
     FM051400 14005KT P6SM BKN025
     FM051600 19006KT P6SM BKN045
     FM060100 VRB03KT P6SM SCT040=



000
FTUS41 KBGM 050601 AAA
TAFELM
TAF AMD
KELM 050601Z 0506/0606 VRB03KT P6SM BKN028
      TEMPO 0506/0509 2SM BR OVC009
     FM050900 VRB03KT 1 1/2SM BR OVC008
     FM051400 14005KT P6SM BKN025
     FM051600 19006KT P6SM BKN045
     FM060100 VRB03KT P6SM SCT040=



000
FTUS41 KBGM 050531
TAFBGM
TAF
KBGM 050531Z 0506/0606 14004KT P6SM BKN050
      TEMPO 0506/0509 BKN025
     FM050900 14004KT 3SM BR OVC006
     FM051400 16005KT P6SM BKN025
     FM051600 18005KT P6SM SCT040=



000
FTUS41 KBGM 050531
TAFELM
TAF
KELM 050531Z 0506/0606 VRB03KT P6SM SCT040
      TEMPO 0506/0509 2SM BR OVC009
     FM050900 VRB03KT 1 1/2SM BR OVC008
     FM051400 14005KT P6SM BKN025
     FM051600 19006KT P6SM BKN045
     FM060100 VRB03KT P6SM SCT040=



000
FTUS41 KBGM 050531
TAFAVP
TAF
KAVP 050531Z 0506/0606 10003KT P6SM SCT040
      TEMPO 0506/0509 BKN025
     FM050900 VRB03KT 4SM BR OVC015
     FM051400 25006KT P6SM BKN045
     FM060100 VRB03KT P6SM SCT045=



000
FTUS41 KBGM 050531
TAFITH
TAF
KITH 050531Z 0506/0606 14005KT P6SM SKC
      TEMPO 0506/0510 BKN020
     FM051000 15005KT 2SM BR OVC012
     FM051300 16006KT P6SM BKN025
     FM051600 18007KT P6SM SCT040
     FM060100 13004KT P6SM SKC=



000
FTUS41 KBGM 050531
TAFSYR
TAF
KSYR 050531Z 0506/0606 08005KT P6SM SKC
     FM050900 10005KT P6SM BKN040
     FM051400 16006KT P6SM SCT045
     FM060100 08004KT P6SM SKC=



000
FTUS41 KBGM 050303 AAB
TAFBGM
TAF AMD
KBGM 050303Z 0503/0524 15005KT P6SM SCT035
     FM050600 14004KT P6SM BKN025
     FM050900 14004KT 3SM BR OVC006
     FM051400 16005KT P6SM BKN025
     FM051600 18006KT P6SM SCT040=



000
FTUS41 KBGM 050302 AAA
TAFELM
TAF AMD
KELM 050302Z 0503/0524 VRB03KT P6SM SCT040
     FM050600 VRB03KT P6SM BKN025
     FM050800 VRB03KT 1 1/2SM BR OVC008
     FM051400 14005KT P6SM BKN025
     FM051600 19006KT P6SM BKN045=



000
FTUS41 KBGM 050302 AAA
TAFELM
TAF AMD
KELM 050302Z 0503/0524 VRB03KT P6SM SCT040
     FM050600 VRB03KT P6SM BKN025
     FM050800 VRB03KT 1 1/2SM BR OVC008
     FM051400 14005KT P6SM BKN025
     FM051600 19006KT P6SM BKN045=



000
FTUS41 KBGM 050242 AAA
TAFAVP
TAF AMD
KAVP 050242Z 0503/0524 10003KT P6SM SCT040
     FM050600 10003KT P6SM BKN025
     FM050900 10003KT 3SM BR OVC012
     FM051400 VRB04KT P6SM BKN045
     FM051900 25006KT P6SM SCT050=



000
FTUS41 KBGM 042323
TAFAVP
TAF
KAVP 042323Z 0500/0524 10003KT P6SM SCT040
     FM050300 10003KT P6SM BKN025
     FM050600 10003KT 3SM BR OVC012
      TEMPO 0508/0512 2SM BR OVC007
     FM051400 VRB04KT P6SM BKN045
     FM051900 25006KT P6SM SCT050=



000
FTUS41 KBGM 042323
TAFBGM
TAF
KBGM 042323Z 0500/0524 15005KT P6SM SCT035
     FM050400 14004KT P6SM BKN025
     FM050700 14004KT 3SM BR OVC006
     FM051400 16005KT P6SM BKN025
     FM051600 18006KT P6SM SCT040=



000
FTUS41 KBGM 042323
TAFITH
TAF
KITH 042323Z 0500/0524 10005KT P6SM SCT040
     FM050500 14005KT P6SM BKN025
     FM050800 15005KT 2SM BR OVC005
     FM051300 16006KT P6SM BKN025
     FM051600 18007KT P6SM SCT040=



000
FTUS41 KBGM 042323
TAFELM
TAF
KELM 042323Z 0500/0524 VRB03KT P6SM SCT040
     FM050400 VRB03KT P6SM BKN025
     FM050600 VRB03KT 1 1/2SM BR OVC008
     FM051400 14005KT P6SM BKN025
     FM051600 19006KT P6SM BKN045=



000
FTUS41 KBGM 042323
TAFSYR
TAF
KSYR 042323Z 0500/0524 08005KT P6SM SKC
     FM050900 10005KT P6SM BKN040
     FM051400 16006KT P6SM SCT045=



000
FTUS41 KBGM 042323
TAFAVP
TAF
KAVP 042323Z 0500/0524 10003KT P6SM SCT040
     FM050300 10003KT P6SM BKN025
     FM050600 10003KT 3SM BR OVC012
      TEMPO 0508/0512 2SM BR OVC007
     FM051400 VRB04KT P6SM BKN045
     FM051900 25006KT P6SM SCT050=



000
FTUS41 KBGM 042323
TAFITH
TAF
KITH 042323Z 0500/0524 10005KT P6SM SCT040
     FM050500 14005KT P6SM BKN025
     FM050800 15005KT 2SM BR OVC005
     FM051300 16006KT P6SM BKN025
     FM051600 18007KT P6SM SCT040=



000
FTUS41 KBGM 042323
TAFBGM
TAF
KBGM 042323Z 0500/0524 15005KT P6SM SCT035
     FM050400 14004KT P6SM BKN025
     FM050700 14004KT 3SM BR OVC006
     FM051400 16005KT P6SM BKN025
     FM051600 18006KT P6SM SCT040=



000
FTUS41 KBGM 042323
TAFELM
TAF
KELM 042323Z 0500/0524 VRB03KT P6SM SCT040
     FM050400 VRB03KT P6SM BKN025
     FM050600 VRB03KT 1 1/2SM BR OVC008
     FM051400 14005KT P6SM BKN025
     FM051600 19006KT P6SM BKN045=



000
FTUS41 KBGM 042323
TAFSYR
TAF
KSYR 042323Z 0500/0524 08005KT P6SM SKC
     FM050900 10005KT P6SM BKN040
     FM051400 16006KT P6SM SCT045=



000
FTUS41 KBGM 041738
TAFSYR
TAF
KSYR 041738Z 0418/0518 05005KT P6SM SCT040 SCT250
     FM050000 10005KT P6SM SCT250
     FM051400 15007KT P6SM SCT045=



000
FTUS41 KBGM 041738
TAFAVP
TAF
KAVP 041738Z 0418/0518 05007KT P6SM BKN035
     FM050000 10003KT P6SM SCT250
     FM050600 10003KT 3SM BR OVC012
     FM051400 VRB03KT P6SM SCT045=



000
FTUS41 KBGM 041738
TAFBGM
TAF
KBGM 041738Z 0418/0518 10005KT P6SM BKN035
     FM050000 15005KT P6SM SCT250
     FM050600 15005KT 2SM BR OVC006
     FM051400 17007KT P6SM SCT040=



000
FTUS41 KBGM 041738
TAFITH
TAF
KITH 041738Z 0418/0518 VRB04KT P6SM SCT040 SCT250
     FM050000 15005KT P6SM SCT250
     FM050800 15005KT 2SM BR OVC005
     FM051300 17007KT P6SM SCT040=



000
FTUS41 KBGM 041738
TAFAVP
TAF
KAVP 041738Z 0418/0518 05007KT P6SM BKN035
     FM050000 10003KT P6SM SCT250
     FM050600 10003KT 3SM BR OVC012
     FM051400 VRB03KT P6SM SCT045=



000
FTUS41 KBGM 041738
TAFSYR
TAF
KSYR 041738Z 0418/0518 05005KT P6SM SCT040 SCT250
     FM050000 10005KT P6SM SCT250
     FM051400 15007KT P6SM SCT045=



000
FTUS41 KBGM 041738
TAFELM
TAF
KELM 041738Z 0418/0518 VRB03KT P6SM BKN040
     FM050000 VRB03KT P6SM SCT250
     FM050600 VRB03KT 1 1/2SM BR OVC008
     FM051400 18005KT P6SM SCT045=



000
FTUS41 KBGM 041738
TAFITH
TAF
KITH 041738Z 0418/0518 VRB04KT P6SM SCT040 SCT250
     FM050000 15005KT P6SM SCT250
     FM050800 15005KT 2SM BR OVC005
     FM051300 17007KT P6SM SCT040=



000
FTUS41 KBGM 041738
TAFELM
TAF
KELM 041738Z 0418/0518 VRB03KT P6SM BKN040
     FM050000 VRB03KT P6SM SCT250
     FM050600 VRB03KT 1 1/2SM BR OVC008
     FM051400 18005KT P6SM SCT045=



000
FTUS41 KBGM 041738
TAFBGM
TAF
KBGM 041738Z 0418/0518 10005KT P6SM BKN035
     FM050000 15005KT P6SM SCT250
     FM050600 15005KT 2SM BR OVC006
     FM051400 17007KT P6SM SCT040=



000
FTUS41 KBGM 041338 AAA
TAFSYR
TAF AMD
KSYR 041338Z 0414/0512 05004KT P6SM SCT050 SCT250
     FM050000 10005KT P6SM SCT250=



000
FTUS41 KBGM 041338 AAA
TAFSYR
TAF AMD
KSYR 041338Z 0414/0512 05004KT P6SM SCT050 SCT250
     FM050000 10005KT P6SM SCT250=



000
FTUS41 KBGM 041336 AAA
TAFITH
TAF AMD
KITH 041336Z 0414/0512 VRB03KT 1SM BR OVC003
      TEMPO 0414/0415 4SM BR SCT008
     FM041500 15006KT P6SM SCT040 SCT250
     FM050900 14003KT 4SM BR SCT250=



000
FTUS41 KBGM 041336 AAA
TAFITH
TAF AMD
KITH 041336Z 0414/0512 VRB03KT 1SM BR OVC003
      TEMPO 0414/0415 4SM BR SCT008
     FM041500 15006KT P6SM SCT040 SCT250
     FM050900 14003KT 4SM BR SCT250=



000
FTUS41 KBGM 041334 AAA
TAFELM
TAF AMD
KELM 041334Z 0414/0512 VRB03KT 4SM BR OVC008
     FM041500 07003KT P6SM SCT045 SCT250
     FM050500 VRB03KT 3SM BR SKC
     FM051000 00000KT 1/2SM FG OVC002=



000
FTUS41 KBGM 041334 AAA
TAFELM
TAF AMD
KELM 041334Z 0414/0512 VRB03KT 4SM BR OVC008
     FM041500 07003KT P6SM SCT045 SCT250
     FM050500 VRB03KT 3SM BR SKC
     FM051000 00000KT 1/2SM FG OVC002=



000
FTUS41 KBGM 041126
TAFITH
TAF
KITH 041126Z 0412/0512 VRB03KT 1/2SM FG OVC002
     FM041330 VRB04KT 2SM BR SKC
     FM041400 VRB04KT 4SM BR SKC
     FM041500 15006KT P6SM SCT040 SCT250
     FM050900 14003KT 4SM BR SCT250=



000
FTUS41 KBGM 041126
TAFBGM
TAF
KBGM 041126Z 0412/0512 VRB03KT P6SM SCT250
      TEMPO 0412/0413 3SM BR
     FM041400 10005KT P6SM SCT040 SCT250
     FM050900 14005KT 4SM BR SCT250=



000
FTUS41 KBGM 041126
TAFSYR
TAF
KSYR 041126Z 0412/0512 VRB03KT 4SM BR BKN015
      TEMPO 0412/0413 2SM BR BKN005
     FM041400 05004KT P6SM SCT050 SCT250=



000
FTUS41 KBGM 041126
TAFELM
TAF
KELM 041126Z 0412/0512 VRB02KT 5SM BR OVC007
     FM041330 VRB03KT 6SM BR OVC015
     FM041500 07003KT P6SM SCT045 SCT250
     FM050500 VRB03KT 3SM BR SKC
     FM051000 00000KT 1/2SM FG OVC002=



000
FTUS41 KBGM 041126
TAFAVP
TAF
KAVP 041126Z 0412/0512 11003KT 4SM BR SKC
     FM041300 04005KT P6SM SCT050 SCT250
     FM050900 10002KT 5SM BR SCT250=



000
FTUS41 KBGM 041126
TAFITH
TAF
KITH 041126Z 0412/0512 VRB03KT 1/2SM FG OVC002
     FM041330 VRB04KT 2SM BR SKC
     FM041400 VRB04KT 4SM BR SKC
     FM041500 15006KT P6SM SCT040 SCT250
     FM050900 14003KT 4SM BR SCT250=



000
FTUS41 KBGM 041126
TAFAVP
TAF
KAVP 041126Z 0412/0512 11003KT 4SM BR SKC
     FM041300 04005KT P6SM SCT050 SCT250
     FM050900 10002KT 5SM BR SCT250=



000
FTUS41 KBGM 041126
TAFELM
TAF
KELM 041126Z 0412/0512 VRB02KT 5SM BR OVC007
     FM041330 VRB03KT 6SM BR OVC015
     FM041500 07003KT P6SM SCT045 SCT250
     FM050500 VRB03KT 3SM BR SKC
     FM051000 00000KT 1/2SM FG OVC002=



000
FTUS41 KBGM 041126
TAFBGM
TAF
KBGM 041126Z 0412/0512 VRB03KT P6SM SCT250
      TEMPO 0412/0413 3SM BR
     FM041400 10005KT P6SM SCT040 SCT250
     FM050900 14005KT 4SM BR SCT250=



000
FTUS41 KBGM 041126
TAFSYR
TAF
KSYR 041126Z 0412/0512 VRB03KT 4SM BR BKN015
      TEMPO 0412/0413 2SM BR BKN005
     FM041400 05004KT P6SM SCT050 SCT250=



000
FTUS41 KBGM 040927 AAC
TAFSYR
TAF AMD
KSYR 040927Z 0409/0506 VRB03KT 2SM BR SKC
      TEMPO 0409/0411 1/4SM FG
     FM041130 VRB03KT 4SM BR SKC
     FM041400 05004KT P6SM SCT050 SCT250=



000
FTUS41 KBGM 040838 AAB
TAFBGM
TAF AMD
KBGM 040838Z 0409/0506 VRB03KT 1/2SM FG VV002
      TEMPO 0409/0413 1/4SM FG VV001
     FM041300 08005KT 2SM BR OVC008
     FM041400 10005KT P6SM SCT040 SCT250=



000
FTUS41 KBGM 040838 AAA
TAFELM
TAF AMD
KELM 040838Z 0409/0506 VRB02KT 4SM BR OVC006
     FM041330 VRB03KT 6SM BR OVC015
     FM041500 07003KT P6SM SCT045 SCT250=



000
FTUS41 KBGM 040838 AAA
TAFITH
TAF AMD
KITH 040838Z 0409/0506 VRB03KT 1/2SM FG OVC002
      TEMPO 0409/0412 1/4SM FG
     FM041300 VRB04KT 2SM BR SKC
     FM041400 VRB04KT 4SM BR SKC
     FM041500 15006KT P6SM SCT040 SCT250=



000
FTUS41 KBGM 040838 AAB
TAFSYR
TAF AMD
KSYR 040838Z 0409/0506 VRB03KT 4SM BR SKC
      TEMPO 0410/0414 6SM BR
     FM041400 05004KT P6SM SCT050 SCT250=



000
FTUS41 KBGM 040838 AAB
TAFAVP
TAF AMD
KAVP 040838Z 0409/0506 11003KT 4SM BR SKC
     FM041300 04005KT P6SM SCT050 SCT250=



000
FTUS41 KBGM 040838 AAA
TAFITH
TAF AMD
KITH 040838Z 0409/0506 VRB03KT 1/2SM FG OVC002
      TEMPO 0409/0412 1/4SM FG
     FM041300 VRB04KT 2SM BR SKC
     FM041400 VRB04KT 4SM BR SKC
     FM041500 15006KT P6SM SCT040 SCT250=



000
FTUS41 KBGM 040838 AAB
TAFSYR
TAF AMD
KSYR 040838Z 0409/0506 VRB03KT 4SM BR SKC
      TEMPO 0410/0414 6SM BR
     FM041400 05004KT P6SM SCT050 SCT250=



000
FTUS41 KBGM 040820 AAA
TAFAVP
TAF AMD
KAVP 040820Z 0408/0506 11003KT 4SM BR SKC
     FM041300 04005KT P6SM SCT050 SCT250=



000
FTUS41 KBGM 040740 AAA
TAFSYR
TAF AMD
KSYR 040740Z 0408/0506 VRB03KT 4SM BR SKC
      TEMPO 0410/0414 6SM BR
     FM041400 05004KT P6SM SCT050 SCT250=



000
FTUS41 KBGM 040740 AAA
TAFSYR
TAF AMD
KSYR 040740Z 0408/0506 VRB03KT 4SM BR SKC
      TEMPO 0410/0414 6SM BR
     FM041400 05004KT P6SM SCT050 SCT250=



000
FTUS41 KBGM 040648 AAA
TAFBGM
TAF AMD
KBGM 040648Z 0407/0506 VRB03KT 1/2SM FG VV002
      TEMPO 0407/0410 1/4SM FG
     FM041300 08005KT 2SM BR OVC008
     FM041400 10005KT P6SM SCT040 SCT250=



000
FTUS41 KBGM 040526
TAFSYR
TAF
KSYR 040526Z 0406/0506 VRB03KT P6SM SCT250
      TEMPO 0406/0409 5SM BR
     FM041400 05004KT P6SM SCT050 SCT250=



000
FTUS41 KBGM 040526
TAFAVP
TAF
KAVP 040526Z 0406/0506 11003KT P6SM FEW250
     FM040900 VRB03KT 3SM BR SCT250
     FM041300 04005KT P6SM SCT050 SCT250=



000
FTUS41 KBGM 040526
TAFITH
TAF
KITH 040526Z 0406/0506 VRB03KT 1SM BR SKC
      TEMPO 0406/0410 1/4SM FG
     FM041300 VRB04KT 4SM BR SKC
     FM041400 VRB04KT P6SM SCT040 SCT250=



000
FTUS41 KBGM 040526
TAFELM
TAF
KELM 040526Z 0406/0506 VRB02KT 1SM BR VV002
      TEMPO 0406/0408 2SM BR SKC
     FM040800 VRB02KT 1/2SM FG VV002
     FM041230 VRB03KT 1SM BR OVC004
     FM041330 07003KT P6SM SCT045 SCT250=



000
FTUS41 KBGM 040526
TAFBGM
TAF
KBGM 040526Z 0406/0506 02004KT 4SM BR SKC
      TEMPO 0409/0413 2SM BR SCT012
     FM041400 10005KT P6SM SCT040 SCT250=



000
FTUS41 KBGM 040526
TAFAVP
TAF
KAVP 040526Z 0406/0506 11003KT P6SM FEW250
     FM040900 VRB03KT 3SM BR SCT250
     FM041300 04005KT P6SM SCT050 SCT250=



000
FTUS41 KBGM 040526
TAFELM
TAF
KELM 040526Z 0406/0506 VRB02KT 1SM BR VV002
      TEMPO 0406/0408 2SM BR SKC
     FM040800 VRB02KT 1/2SM FG VV002
     FM041230 VRB03KT 1SM BR OVC004
     FM041330 07003KT P6SM SCT045 SCT250=



000
FTUS41 KBGM 040526
TAFBGM
TAF
KBGM 040526Z 0406/0506 02004KT 4SM BR SKC
      TEMPO 0409/0413 2SM BR SCT012
     FM041400 10005KT P6SM SCT040 SCT250=



000
FTUS41 KBGM 040339 AAA
TAFITH
TAF AMD
KITH 040339Z 0404/0424 VRB03KT 2SM BR SKC
      TEMPO 0405/0407 3SM BR
     FM041400 VRB04KT P6SM SCT040 SCT250=



000
FTUS41 KBGM 032329
TAFBGM
TAF
KBGM 032329Z 0400/0424 02004KT P6SM SCT040 SCT250
      TEMPO 0409/0413 2SM BR SCT012
     FM041400 10005KT P6SM SCT040 SCT250=



000
FTUS41 KBGM 032329
TAFITH
TAF
KITH 032329Z 0400/0424 VRB03KT P6SM SCT040 SCT250
     FM040900 VRB03KT 2SM BR BKN015
     FM041400 VRB04KT P6SM SCT040 SCT250=



000
FTUS41 KBGM 032329
TAFELM
TAF
KELM 032329Z 0400/0424 VRB03KT P6SM SCT045 SCT250
     FM040500 VRB02KT 3SM BR SCT250
      TEMPO 0405/0409 1SM BR OVC002
     FM040900 VRB02KT 1/2SM FG VV002
     FM041230 VRB03KT 1SM BR OVC004
     FM041330 07003KT P6SM SCT045 SCT250=



000
FTUS41 KBGM 032329
TAFSYR
TAF
KSYR 032329Z 0400/0424 VRB03KT P6SM SCT250
     FM041400 05004KT P6SM SCT050 SCT250=



000
FTUS41 KBGM 032329
TAFAVP
TAF
KAVP 032329Z 0400/0424 VRB03KT P6SM SCT040 SCT250
     FM040900 VRB03KT 4SM BR SCT250
     FM041400 04005KT P6SM SCT050 SCT250=



000
FTUS41 KBGM 032329
TAFBGM
TAF
KBGM 032329Z 0400/0424 02004KT P6SM SCT040 SCT250
      TEMPO 0409/0413 2SM BR SCT012
     FM041400 10005KT P6SM SCT040 SCT250=



000
FTUS41 KBGM 032329
TAFITH
TAF
KITH 032329Z 0400/0424 VRB03KT P6SM SCT040 SCT250
     FM040900 VRB03KT 2SM BR BKN015
     FM041400 VRB04KT P6SM SCT040 SCT250=



000
FTUS41 KBGM 032329
TAFELM
TAF
KELM 032329Z 0400/0424 VRB03KT P6SM SCT045 SCT250
     FM040500 VRB02KT 3SM BR SCT250
      TEMPO 0405/0409 1SM BR OVC002
     FM040900 VRB02KT 1/2SM FG VV002
     FM041230 VRB03KT 1SM BR OVC004
     FM041330 07003KT P6SM SCT045 SCT250=



000
FTUS41 KBGM 032329
TAFAVP
TAF
KAVP 032329Z 0400/0424 VRB03KT P6SM SCT040 SCT250
     FM040900 VRB03KT 4SM BR SCT250
     FM041400 04005KT P6SM SCT050 SCT250=



000
FTUS41 KBGM 032329
TAFSYR
TAF
KSYR 032329Z 0400/0424 VRB03KT P6SM SCT250
     FM041400 05004KT P6SM SCT050 SCT250=



000
FTUS41 KBGM 032051 AAB
TAFAVP
TAF AMD
KAVP 032051Z 0321/0418 34005KT P6SM BKN040
      TEMPO 0321/0322 1SM -TSRA BKN025CB OVC040
     FM040000 VRB03KT P6SM SCT040 SCT250
     FM040900 VRB03KT 4SM BR SCT250
     FM041400 04005KT P6SM SCT050 SCT250=



000
FTUS41 KBGM 032051 AAB
TAFAVP
TAF AMD
KAVP 032051Z 0321/0418 34005KT P6SM BKN040
      TEMPO 0321/0322 1SM -TSRA BKN025CB OVC040
     FM040000 VRB03KT P6SM SCT040 SCT250
     FM040900 VRB03KT 4SM BR SCT250
     FM041400 04005KT P6SM SCT050 SCT250=



000
FTUS41 KBGM 031947 AAA
TAFAVP
TAF AMD
KAVP 031947Z 0320/0418 34005KT P6SM BKN040
      TEMPO 0320/0322 3SM SHRA BKN025 OVC040
     FM040000 VRB03KT P6SM SCT040 SCT250
     FM040900 VRB03KT 4SM BR SCT250
     FM041400 04005KT P6SM SCT050 SCT250=



000
FTUS41 KBGM 031947 AAA
TAFAVP
TAF AMD
KAVP 031947Z 0320/0418 34005KT P6SM BKN040
      TEMPO 0320/0322 3SM SHRA BKN025 OVC040
     FM040000 VRB03KT P6SM SCT040 SCT250
     FM040900 VRB03KT 4SM BR SCT250
     FM041400 04005KT P6SM SCT050 SCT250=



000
FTUS41 KBGM 031946 AAB
TAFBGM
TAF AMD
KBGM 031946Z 0320/0418 35005KT P6SM BKN040
     FM040000 02004KT P6SM SCT040 SCT250
      TEMPO 0409/0413 2SM BR SCT012
     FM041400 10005KT P6SM SCT040 SCT250=



000
FTUS41 KBGM 031945 AAA
TAFITH
TAF AMD
KITH 031945Z 0320/0418 32005KT P6SM SCT025 BKN040
     FM040000 VRB03KT P6SM SCT040 SCT250
     FM040900 VRB03KT 2SM BR BKN015
     FM041400 VRB04KT P6SM SCT040 SCT250=



000
FTUS41 KBGM 031901 AAA
TAFSYR
TAF AMD
KSYR 031901Z 0319/0418 34008KT P6SM SCT035 BKN250
     FM040000 VRB03KT P6SM SCT250
     FM041400 05004KT P6SM SCT050 SCT250=



000
FTUS41 KBGM 031739
TAFSYR
TAF
KSYR 031739Z 0318/0418 32007KT P6SM SCT025 BKN050
      TEMPO 0318/0321 BKN025 BKN050
     FM032100 34005KT P6SM SCT040 BKN250
     FM040000 VRB03KT P6SM SCT250
     FM041400 05004KT P6SM SCT050 SCT250=



000
FTUS41 KBGM 031739
TAFBGM
TAF
KBGM 031739Z 0318/0418 32005KT P6SM BKN025 BKN040
     FM032100 35005KT P6SM BKN040
     FM040000 02004KT P6SM SCT040 SCT250
      TEMPO 0409/0413 2SM BR SCT012
     FM041400 10005KT P6SM SCT040 SCT250=



000
FTUS41 KBGM 031739
TAFELM
TAF
KELM 031739Z 0318/0418 34004KT P6SM SCT025 BKN040
     FM032100 02004KT P6SM BKN045
     FM040000 VRB03KT P6SM SCT045 SCT250
     FM040300 VRB02KT 3SM BR SCT250
     FM040600 VRB02KT 1/2SM FG VV002
     FM041400 07003KT P6SM SCT045 SCT250=



000
FTUS41 KBGM 031739
TAFITH
TAF
KITH 031739Z 0318/0418 29005KT 5SM HZ BKN015
     FM032100 32005KT P6SM BKN040
     FM040000 VRB03KT P6SM SCT040 SCT250
     FM040900 VRB03KT 2SM BR BKN015
     FM041400 VRB04KT P6SM SCT040 SCT250=



000
FTUS41 KBGM 031739
TAFAVP
TAF
KAVP 031739Z 0318/0418 34005KT P6SM BKN040
     FM040000 VRB03KT P6SM SCT040 SCT250
     FM040900 VRB03KT 4SM BR SCT250
     FM041400 04005KT P6SM SCT050 SCT250=



000
FTUS41 KBGM 031739
TAFELM
TAF
KELM 031739Z 0318/0418 34004KT P6SM SCT025 BKN040
     FM032100 02004KT P6SM BKN045
     FM040000 VRB03KT P6SM SCT045 SCT250
     FM040300 VRB02KT 3SM BR SCT250
     FM040600 VRB02KT 1/2SM FG VV002
     FM041400 07003KT P6SM SCT045 SCT250=



000
FTUS41 KBGM 031739
TAFITH
TAF
KITH 031739Z 0318/0418 29005KT 5SM HZ BKN015
     FM032100 32005KT P6SM BKN040
     FM040000 VRB03KT P6SM SCT040 SCT250
     FM040900 VRB03KT 2SM BR BKN015
     FM041400 VRB04KT P6SM SCT040 SCT250=



000
FTUS41 KBGM 031739
TAFSYR
TAF
KSYR 031739Z 0318/0418 32007KT P6SM SCT025 BKN050
      TEMPO 0318/0321 BKN025 BKN050
     FM032100 34005KT P6SM SCT040 BKN250
     FM040000 VRB03KT P6SM SCT250
     FM041400 05004KT P6SM SCT050 SCT250=



000
FTUS41 KBGM 031606 AAB
TAFSYR
TAF AMD
KSYR 031606Z 0316/0412 VRB03KT P6SM BKN018 OVC040
     FM031800 30005KT P6SM SCT025 BKN040
     FM032100 31005KT P6SM SCT040 BKN250=



000
FTUS41 KBGM 031503 AAB
TAFITH
TAF AMD
KITH 031503Z 0315/0412 VRB03KT P6SM BKN015 BKN040
     FM031700 32005KT P6SM SCT040 BKN200
     FM040600 VRB03KT 4SM BR SCT100
     FM040800 VRB03KT 2SM BR SCT050=



000
FTUS41 KBGM 031404 AAA
TAFITH
TAF AMD
KITH 031404Z 0314/0412 VRB03KT P6SM BKN015 BKN035
     FM031500 32005KT P6SM SCT040 BKN200
     FM040600 VRB03KT 4SM BR SCT100
     FM040800 VRB03KT 2SM BR SCT050=



000
FTUS41 KBGM 031310 AAA
TAFSYR
TAF AMD
KSYR 031310Z 0313/0412 VRB03KT 5SM BR BKN015 OVC040
     FM031400 31005KT P6SM SCT040 BKN250=



000
FTUS41 KBGM 031310 AAA
TAFSYR
TAF AMD
KSYR 031310Z 0313/0412 VRB03KT 5SM BR BKN015 OVC040
     FM031400 31005KT P6SM SCT040 BKN250=



000
FTUS41 KBGM 031123
TAFELM
TAF
KELM 031123Z 0312/0412 00000KT 1SM BR VV002
     FM031230 00000KT 2SM BR SCT005
     FM031400 36005KT P6SM SCT045
     FM040400 05002KT 5SM BR SCT045 OVC120
     FM040500 04002KT 2SM BR BKN045
     FM040700 03002KT 1/2SM FG OVC003=



000
FTUS41 KBGM 031123
TAFAVP
TAF
KAVP 031123Z 0312/0412 VRB03KT P6SM FEW200
      TEMPO 0312/0314 4SM BR
     FM031400 26005KT P6SM SCT040 SCT200
     FM040700 VRB03KT 4SM BR BKN250=



000
FTUS41 KBGM 031123
TAFITH
TAF
KITH 031123Z 0312/0412 VRB03KT 2SM BR SCT200
      TEMPO 0312/0314 3SM BR
     FM031400 32005KT P6SM SCT040 BKN200
     FM040600 VRB03KT 4SM BR SCT100
     FM040800 VRB03KT 2SM BR SCT050=



000
FTUS41 KBGM 031123
TAFBGM
TAF
KBGM 031123Z 0312/0412 VRB03KT 2SM BR SCT005
     FM031330 31005KT 3SM BR SCT005
     FM031400 34005KT P6SM SCT025 BKN250
     FM040500 04005KT 5SM BR SCT025 BKN120
     FM040700 04004KT 1 1/2SM BR BKN007=



000
FTUS41 KBGM 031123
TAFSYR
TAF
KSYR 031123Z 0312/0412 00000KT 3SM BR SCT150
      TEMPO 0312/0313 2SM BR
     FM031300 31005KT P6SM SCT040 BKN250=



000
FTUS41 KBGM 031123
TAFELM
TAF
KELM 031123Z 0312/0412 00000KT 1SM BR VV002
     FM031230 00000KT 2SM BR SCT005
     FM031400 36005KT P6SM SCT045
     FM040400 05002KT 5SM BR SCT045 OVC120
     FM040500 04002KT 2SM BR BKN045
     FM040700 03002KT 1/2SM FG OVC003=



000
FTUS41 KBGM 031123
TAFSYR
TAF
KSYR 031123Z 0312/0412 00000KT 3SM BR SCT150
      TEMPO 0312/0313 2SM BR
     FM031300 31005KT P6SM SCT040 BKN250=



000
FTUS41 KBGM 031123
TAFAVP
TAF
KAVP 031123Z 0312/0412 VRB03KT P6SM FEW200
      TEMPO 0312/0314 4SM BR
     FM031400 26005KT P6SM SCT040 SCT200
     FM040700 VRB03KT 4SM BR BKN250=



000
FTUS41 KBGM 031123
TAFBGM
TAF
KBGM 031123Z 0312/0412 VRB03KT 2SM BR SCT005
     FM031330 31005KT 3SM BR SCT005
     FM031400 34005KT P6SM SCT025 BKN250
     FM040500 04005KT 5SM BR SCT025 BKN120
     FM040700 04004KT 1 1/2SM BR BKN007=



000
FTUS41 KBGM 031123
TAFITH
TAF
KITH 031123Z 0312/0412 VRB03KT 2SM BR SCT200
      TEMPO 0312/0314 3SM BR
     FM031400 32005KT P6SM SCT040 BKN200
     FM040600 VRB03KT 4SM BR SCT100
     FM040800 VRB03KT 2SM BR SCT050=



000
FTUS41 KBGM 030858 AAC
TAFBGM
TAF AMD
KBGM 030858Z 0309/0406 VRB03KT 1/2SM FG SCT005
      TEMPO 0309/0313 1/4SM FG
     FM031330 31005KT 3SM BR SCT005
     FM031400 34005KT P6SM SCT025 BKN250=



000
FTUS41 KBGM 030853 AAB
TAFAVP
TAF AMD
KAVP 030853Z 0309/0406 VRB03KT P6SM FEW200
      TEMPO 0309/0312 4SM BR
     FM031400 26005KT P6SM BKN040=



000
FTUS41 KBGM 030853 AAA
TAFSYR
TAF AMD
KSYR 030853Z 0309/0406 00000KT 3SM BR SCT150
      TEMPO 0309/0312 2SM BR
     FM031300 31005KT P6SM SCT025 BKN045=



000
FTUS41 KBGM 030853 AAB
TAFBGM
TAF AMD
KBGM 030853Z 0309/0406 VRB03KT 3SM BR SCT005
      TEMPO 0309/0312 1SM BR
     FM031330 31005KT P6SM SCT025 BKN035=



000
FTUS41 KBGM 030853 AAA
TAFITH
TAF AMD
KITH 030853Z 0309/0406 VRB03KT 1SM BR SCT200
      TEMPO 0312/0314 3SM BR
     FM031400 32005KT P6SM SCT025 BKN035=



000
FTUS41 KBGM 030853 AAB
TAFELM
TAF AMD
KELM 030853Z 0309/0406 00000KT 1/2SM FG VV002
     FM031230 00000KT 2SM BR OVC002
     FM031400 36005KT P6SM SCT045=



000
FTUS41 KBGM 030807 AAA
TAFAVP
TAF AMD
KAVP 030807Z 0308/0406 VRB03KT P6SM FEW200
      TEMPO 0308/0312 4SM BR
     FM031400 26005KT P6SM BKN040=



000
FTUS41 KBGM 030625 AAA
TAFELM
TAF AMD
KELM 030625Z 0306/0406 00000KT 1/2SM FG VV003
      TEMPO 0306/0310 1/4SM FG OVC002
     FM031230 00000KT 2SM BR OVC002
     FM031400 36005KT P6SM SCT045=



000
FTUS41 KBGM 030625 AAA
TAFELM
TAF AMD
KELM 030625Z 0306/0406 00000KT 1/2SM FG VV003
      TEMPO 0306/0310 1/4SM FG OVC002
     FM031230 00000KT 2SM BR OVC002
     FM031400 36005KT P6SM SCT045=



000
FTUS41 KBGM 030537
TAFSYR
TAF
KSYR 030537Z 0306/0406 VRB03KT 3SM BR SCT150
     FM030800 00000KT 2SM BR SCT150
     FM031300 31005KT P6SM SCT025 BKN045=



000
FTUS41 KBGM 030537
TAFITH
TAF
KITH 030537Z 0306/0406 VRB03KT 1SM BR SCT200
      TEMPO 0312/0313 3SM BR
     FM031300 32005KT P6SM SCT025 BKN035=



000
FTUS41 KBGM 030537
TAFELM
TAF
KELM 030537Z 0306/0406 00000KT 3SM BR SCT002
      TEMPO 0306/0309 1SM BR OVC002
     FM030900 00000KT 1/2SM FG OVC002
     FM031230 00000KT 2SM BR OVC002
     FM031400 36005KT P6SM SCT045=



000
FTUS41 KBGM 030537
TAFBGM
TAF
KBGM 030537Z 0306/0406 VRB03KT P6SM SCT200
     FM030800 VRB03KT 3SM BR SCT005
      TEMPO 0309/0312 2SM BR
     FM031300 31005KT P6SM SCT025 BKN035=



000
FTUS41 KBGM 030537
TAFAVP
TAF
KAVP 030537Z 0306/0406 VRB03KT P6SM FEW200
      TEMPO 0309/0312 3SM BR
     FM031400 26005KT P6SM BKN040=



000
FTUS41 KBGM 030243 AAA
TAFELM
TAF AMD
KELM 030243Z 0303/0324 00000KT P6SM SCT200
     FM030500 00000KT 4SM BR SCT002
      TEMPO 0305/0309 1SM BR OVC002
     FM030900 00000KT 1/2SM FG OVC002
     FM031230 00000KT 2SM BR OVC002
     FM031330 31005KT P6SM BKN045=



000
FTUS41 KBGM 030243 AAA
TAFELM
TAF AMD
KELM 030243Z 0303/0324 00000KT P6SM SCT200
     FM030500 00000KT 4SM BR SCT002
      TEMPO 0305/0309 1SM BR OVC002
     FM030900 00000KT 1/2SM FG OVC002
     FM031230 00000KT 2SM BR OVC002
     FM031330 31005KT P6SM BKN045=



000
FTUS41 KBGM 030238 AAA
TAFITH
TAF AMD
KITH 030238Z 0303/0324 VRB03KT P6SM SCT200
      TEMPO 0303/0307 1SM BR
     FM030700 00000KT 1SM BR SCT150
      TEMPO 0309/0313 4SM BR SCT120
     FM031300 32005KT P6SM SCT025 BKN035=



000
FTUS41 KBGM 030236 AAA
TAFSYR
TAF AMD
KSYR 030236Z 0303/0324 VRB03KT 3SM BR SCT150
     FM030800 00000KT 2SM BR SCT150
     FM031300 31005KT P6SM SCT025 BKN045=



000
FTUS41 KBGM 022323
TAFELM
TAF
KELM 022323Z 0300/0324 00000KT P6SM SCT200
     FM030500 00000KT 4SM BR SCT002
      TEMPO 0305/0309 1SM BR OVC002
     FM030900 00000KT 1/2SM FG OVC002
     FM031330 00000KT 2SM BR OVC002
     FM031400 31005KT P6SM BKN045=



000
FTUS41 KBGM 022323
TAFSYR
TAF
KSYR 022323Z 0300/0324 VRB03KT P6SM SCT150
     FM031000 VRB03KT 5SM BR SCT015
     FM031300 31005KT P6SM SCT025 BKN045=



000
FTUS41 KBGM 022323
TAFBGM
TAF
KBGM 022323Z 0300/0324 VRB03KT P6SM SCT200
     FM030800 VRB03KT 3SM BR SCT005
      TEMPO 0309/0312 3/4SM BR OVC005
     FM031300 31005KT P6SM SCT025 BKN035=



000
FTUS41 KBGM 022323
TAFITH
TAF
KITH 022323Z 0300/0324 VRB03KT P6SM SCT200
     FM030900 VRB03KT 4SM BR SCT120
     FM031300 32005KT P6SM SCT025 BKN035=



000
FTUS41 KBGM 022323
TAFAVP
TAF
KAVP 022323Z 0300/0324 VRB03KT P6SM FEW200
      TEMPO 0309/0312 3SM BR
     FM031400 26005KT P6SM BKN040=



000
FTUS41 KBGM 022323
TAFITH
TAF
KITH 022323Z 0300/0324 VRB03KT P6SM SCT200
     FM030900 VRB03KT 4SM BR SCT120
     FM031300 32005KT P6SM SCT025 BKN035=



000
FTUS41 KBGM 022323
TAFBGM
TAF
KBGM 022323Z 0300/0324 VRB03KT P6SM SCT200
     FM030800 VRB03KT 3SM BR SCT005
      TEMPO 0309/0312 3/4SM BR OVC005
     FM031300 31005KT P6SM SCT025 BKN035=



000
FTUS41 KBGM 022323
TAFSYR
TAF
KSYR 022323Z 0300/0324 VRB03KT P6SM SCT150
     FM031000 VRB03KT 5SM BR SCT015
     FM031300 31005KT P6SM SCT025 BKN045=



000
FTUS41 KBGM 022323
TAFELM
TAF
KELM 022323Z 0300/0324 00000KT P6SM SCT200
     FM030500 00000KT 4SM BR SCT002
      TEMPO 0305/0309 1SM BR OVC002
     FM030900 00000KT 1/2SM FG OVC002
     FM031330 00000KT 2SM BR OVC002
     FM031400 31005KT P6SM BKN045=



000
FTUS41 KBGM 022323
TAFAVP
TAF
KAVP 022323Z 0300/0324 VRB03KT P6SM FEW200
      TEMPO 0309/0312 3SM BR
     FM031400 26005KT P6SM BKN040=



000
FTUS41 KBGM 021729
TAFELM
TAF
KELM 021729Z 0218/0318 32005KT P6SM SCT045
     FM030000 00000KT P6SM SKC
     FM030600 00000KT 1/2SM FG OVC002
      TEMPO 0306/0308 2SM BR SCT002
     FM031300 VRB03KT 3SM BR SCT005
     FM031400 31005KT P6SM BKN045=



000
FTUS41 KBGM 021729
TAFSYR
TAF
KSYR 021729Z 0218/0318 28005KT P6SM SCT035
     FM030000 VRB03KT P6SM SCT150
     FM031000 VRB03KT 5SM BR SCT015
     FM031300 31005KT P6SM SCT025 BKN045=



000
FTUS41 KBGM 021729
TAFITH
TAF
KITH 021729Z 0218/0318 31005KT P6SM SCT035
     FM030000 VRB03KT P6SM SKC
     FM030900 VRB03KT 4SM BR SCT120
     FM031300 32005KT P6SM SCT025 BKN035=



000
FTUS41 KBGM 021729
TAFBGM
TAF
KBGM 021729Z 0218/0318 30008KT P6SM SCT035
     FM030000 VRB03KT P6SM SKC
     FM030800 VRB03KT 3SM BR SCT005
      TEMPO 0309/0312 3/4SM BR OVC005
     FM031300 31005KT P6SM SCT025 BKN035=



000
FTUS41 KBGM 021729
TAFAVP
TAF
KAVP 021729Z 0218/0318 30005KT P6SM SCT040
     FM030000 VRB03KT P6SM SKC
      TEMPO 0309/0312 3SM BR
     FM031400 26005KT P6SM BKN040=



000
FTUS41 KBGM 021729
TAFELM
TAF
KELM 021729Z 0218/0318 32005KT P6SM SCT045
     FM030000 00000KT P6SM SKC
     FM030600 00000KT 1/2SM FG OVC002
      TEMPO 0306/0308 2SM BR SCT002
     FM031300 VRB03KT 3SM BR SCT005
     FM031400 31005KT P6SM BKN045=



000
FTUS41 KBGM 021729
TAFBGM
TAF
KBGM 021729Z 0218/0318 30008KT P6SM SCT035
     FM030000 VRB03KT P6SM SKC
     FM030800 VRB03KT 3SM BR SCT005
      TEMPO 0309/0312 3/4SM BR OVC005
     FM031300 31005KT P6SM SCT025 BKN035=



000
FTUS41 KBGM 021729
TAFITH
TAF
KITH 021729Z 0218/0318 31005KT P6SM SCT035
     FM030000 VRB03KT P6SM SKC
     FM030900 VRB03KT 4SM BR SCT120
     FM031300 32005KT P6SM SCT025 BKN035=



000
FTUS41 KBGM 021729
TAFAVP
TAF
KAVP 021729Z 0218/0318 30005KT P6SM SCT040
     FM030000 VRB03KT P6SM SKC
      TEMPO 0309/0312 3SM BR
     FM031400 26005KT P6SM BKN040=



000
FTUS41 KBGM 021729
TAFSYR
TAF
KSYR 021729Z 0218/0318 28005KT P6SM SCT035
     FM030000 VRB03KT P6SM SCT150
     FM031000 VRB03KT 5SM BR SCT015
     FM031300 31005KT P6SM SCT025 BKN045=



000
FTUS41 KBGM 021408 AAA
TAFSYR
TAF AMD
KSYR 021408Z 0214/0312 VRB03KT P6SM SCT015
      TEMPO 0214/0216 BKN015
     FM021600 28008KT P6SM SCT040
     FM030900 VRB03KT P6SM BKN250=



000
FTUS41 KBGM 021408 AAA
TAFSYR
TAF AMD
KSYR 021408Z 0214/0312 VRB03KT P6SM SCT015
      TEMPO 0214/0216 BKN015
     FM021600 28008KT P6SM SCT040
     FM030900 VRB03KT P6SM BKN250=



000
FTUS41 KBGM 021308 AAB
TAFBGM
TAF AMD
KBGM 021308Z 0213/0312 VRB03KT 3SM BR SCT008
      TEMPO 0213/0215 3/4SM BR OVC003
     FM021500 30005KT P6SM SCT030
     FM030700 VRB03KT 4SM BR SCT250
     FM030900 29003KT 2SM BR SKC=



000
FTUS41 KBGM 021308 AAB
TAFBGM
TAF AMD
KBGM 021308Z 0213/0312 VRB03KT 3SM BR SCT008
      TEMPO 0213/0215 3/4SM BR OVC003
     FM021500 30005KT P6SM SCT030
     FM030700 VRB03KT 4SM BR SCT250
     FM030900 29003KT 2SM BR SKC=



000
FTUS41 KBGM 021127
TAFSYR
TAF
KSYR 021127Z 0212/0312 26006KT 3/4SM BR OVC005
      TEMPO 0213/0214 4SM BR SCT005
     FM021400 28005KT P6SM SCT030
     FM030900 VRB03KT P6SM BKN250=



000
FTUS41 KBGM 021127
TAFITH
TAF
KITH 021127Z 0212/0312 VRB03KT 3SM BR SKC
     FM021400 30005KT P6SM SKC
     FM030700 32004KT 4SM BR SCT250=



000
FTUS41 KBGM 021127
TAFELM
TAF
KELM 021127Z 0212/0312 VRB03KT 3SM BR SCT005
      TEMPO 0212/0214 1/2SM FG OVC002
     FM021500 31005KT P6SM SCT030
     FM030400 26001KT 5SM HZ SCT030
     FM030700 27002KT 1/2SM FG SCT030 SCT250=



000
FTUS41 KBGM 021127
TAFAVP
TAF
KAVP 021127Z 0212/0312 VRB03KT 4SM BR SKC
     FM021400 28005KT P6SM SCT030=



000
FTUS41 KBGM 021127
TAFBGM
TAF
KBGM 021127Z 0212/0312 VRB03KT 3SM BR SCT008
      TEMPO 0212/0213 1/2SM FG OVC002
     FM021400 30005KT P6SM SCT030
     FM030700 VRB03KT 4SM BR SCT250
     FM030900 29003KT 2SM BR SKC=



000
FTUS41 KBGM 021127
TAFBGM
TAF
KBGM 021127Z 0212/0312 VRB03KT 3SM BR SCT008
      TEMPO 0212/0213 1/2SM FG OVC002
     FM021400 30005KT P6SM SCT030
     FM030700 VRB03KT 4SM BR SCT250
     FM030900 29003KT 2SM BR SKC=



000
FTUS41 KBGM 021127
TAFAVP
TAF
KAVP 021127Z 0212/0312 VRB03KT 4SM BR SKC
     FM021400 28005KT P6SM SCT030=



000
FTUS41 KBGM 021127
TAFELM
TAF
KELM 021127Z 0212/0312 VRB03KT 3SM BR SCT005
      TEMPO 0212/0214 1/2SM FG OVC002
     FM021500 31005KT P6SM SCT030
     FM030400 26001KT 5SM HZ SCT030
     FM030700 27002KT 1/2SM FG SCT030 SCT250=



000
FTUS41 KBGM 021127
TAFITH
TAF
KITH 021127Z 0212/0312 VRB03KT 3SM BR SKC
     FM021400 30005KT P6SM SKC
     FM030700 32004KT 4SM BR SCT250=



000
FTUS41 KBGM 021127
TAFSYR
TAF
KSYR 021127Z 0212/0312 26006KT 3/4SM BR OVC005
      TEMPO 0213/0214 4SM BR SCT005
     FM021400 28005KT P6SM SCT030
     FM030900 VRB03KT P6SM BKN250=



000
FTUS41 KBGM 021011 AAB
TAFITH
TAF AMD
KITH 021011Z 0210/0306 08003KT 3SM BR SKC
      TEMPO 0210/0212 2SM BR SKC
     FM021400 VRB03KT 4SM BR SKC
     FM021500 30005KT P6SM SCT030=



000
FTUS41 KBGM 021011 AAB
TAFITH
TAF AMD
KITH 021011Z 0210/0306 08003KT 3SM BR SKC
      TEMPO 0210/0212 2SM BR SKC
     FM021400 VRB03KT 4SM BR SKC
     FM021500 30005KT P6SM SCT030=



000
FTUS41 KBGM 020953 AAB
TAFBGM
TAF AMD
KBGM 020953Z 0210/0306 VRB02KT 1SM BR VV005
      TEMPO 0210/0213 1/2SM FG VV002
     FM021400 VRB03KT P6SM SKC
     FM021600 30005KT P6SM SCT030=



000
FTUS41 KBGM 020845 AAB
TAFBGM
TAF AMD
KBGM 020845Z 0209/0306 VRB02KT 1/2SM FG SKC
      TEMPO 0209/0212 1/4SM FG VV001
     FM021400 VRB03KT P6SM SKC
     FM021600 30005KT P6SM SCT030=



000
FTUS41 KBGM 020845 AAB
TAFSYR
TAF AMD
KSYR 020845Z 0209/0306 26006KT 4SM BR SKC
      TEMPO 0209/0212 2SM BR
     FM021500 28005KT P6SM SCT030=



000
FTUS41 KBGM 020845 AAA
TAFITH
TAF AMD
KITH 020845Z 0209/0306 08003KT 3/4SM BR SKC
      TEMPO 0209/0212 1/4SM FG SKC
     FM021400 VRB03KT 4SM BR SKC
     FM021500 30005KT P6SM SCT030=



000
FTUS41 KBGM 020845 AAA
TAFAVP
TAF AMD
KAVP 020845Z 0209/0306 VRB02KT 5SM BR SKC
     FM021330 VRB03KT P6SM SKC
     FM021500 28005KT P6SM SCT030=



000
FTUS41 KBGM 020845 AAB
TAFELM
TAF AMD
KELM 020845Z 0209/0306 00000KT 1/2SM FG VV003
      TEMPO 0209/0213 1/4SM FG VV001
     FM021300 00000KT 2SM BR OVC004
     FM021400 VRB02KT 4SM BR SKC
     FM021500 31005KT P6SM SCT030=



000
FTUS41 KBGM 020845 AAB
TAFSYR
TAF AMD
KSYR 020845Z 0209/0306 26006KT 4SM BR SKC
      TEMPO 0209/0212 2SM BR
     FM021500 28005KT P6SM SCT030=



000
FTUS41 KBGM 020845 AAB
TAFBGM
TAF AMD
KBGM 020845Z 0209/0306 VRB02KT 1/2SM FG SKC
      TEMPO 0209/0212 1/4SM FG VV001
     FM021400 VRB03KT P6SM SKC
     FM021600 30005KT P6SM SCT030=



000
FTUS41 KBGM 020845 AAA
TAFAVP
TAF AMD
KAVP 020845Z 0209/0306 VRB02KT 5SM BR SKC
     FM021330 VRB03KT P6SM SKC
     FM021500 28005KT P6SM SCT030=



000
FTUS41 KBGM 020845 AAA
TAFITH
TAF AMD
KITH 020845Z 0209/0306 08003KT 3/4SM BR SKC
      TEMPO 0209/0212 1/4SM FG SKC
     FM021400 VRB03KT 4SM BR SKC
     FM021500 30005KT P6SM SCT030=



000
FTUS41 KBGM 020845 AAB
TAFELM
TAF AMD
KELM 020845Z 0209/0306 00000KT 1/2SM FG VV003
      TEMPO 0209/0213 1/4SM FG VV001
     FM021300 00000KT 2SM BR OVC004
     FM021400 VRB02KT 4SM BR SKC
     FM021500 31005KT P6SM SCT030=



    US Dept of Commerce
    National Oceanic and Atmospheric Administration
    National Weather Service
    1325 East West Highway
    Silver Spring, MD 20910
    Page Author: NWS Internet Services Team
Disclaimer
Information Quality
Credits
Glossary
Privacy Policy
Freedom of Information Act (FOIA)
About Us
Career Opportunities